sensor_id;sensor_type;location;lat;lon;timestamp;P1;durP1;ratioP1;P2;durP2;ratioP2
5135;SDS011;2586;48.710;9.202;2022-11-04T00:01:14;1.00;;;1.00;;
5135;SDS011;2586;48.710;9.202;2022-11-04T00:03:40;1.80;;;1.20;;
5135;SDS011;2586;48.710;9.202;2022-11-04T00:06:05;1.30;;;1.20;;
5135;SDS011;2586;48.710;9.202;2022-11-04T00:08:32;1.53;;;1.07;;
5135;SDS011;2586;48.710;9.202;2022-11-04T00:10:58;1.10;;;1.10;;
5135;SDS011;2586;48.710;9.202;2022-11-04T00:13:43;4.73;;;0.90;;
5135;SDS011;2586;48.710;9.202;2022-11-04T00:16:10;2.60;;;0.80;;
5135;SDS011;2586;48.710;9.202;2022-11-04T00:18:55;0.90;;;0.90;;
5135;SDS011;2586;48.710;9.202;2022-11-04T00:21:21;3.20;;;0.90;;
5135;SDS011;2586;48.710;9.202;2022-11-04T00:24:05;1.37;;;0.93;;
5135;SDS011;2586;48.710;9.202;2022-11-04T00:26:52;1.10;;;1.00;;
5135;SDS011;2586;48.710;9.202;2022-11-04T00:29:36;2.20;;;1.00;;
5135;SDS011;2586;48.710;9.202;2022-11-04T00:32:02;0.93;;;0.93;;
5135;SDS011;2586;48.710;9.202;2022-11-04T00:34:46;3.63;;;1.30;;
5135;SDS011;2586;48.710;9.202;2022-11-04T00:37:11;0.80;;;0.80;;
5135;SDS011;2586;48.710;9.202;2022-11-04T00:39:37;1.20;;;1.10;;
5135;SDS011;2586;48.710;9.202;2022-11-04T00:42:03;1.87;;;1.20;;
5135;SDS011;2586;48.710;9.202;2022-11-04T00:44:28;1.10;;;1.00;;
5135;SDS011;2586;48.710;9.202;2022-11-04T00:46:54;1.30;;;1.20;;
5135;SDS011;2586;48.710;9.202;2022-11-04T00:49:19;0.80;;;0.77;;
5135;SDS011;2586;48.710;9.202;2022-11-04T00:51:45;1.00;;;1.00;;
5135;SDS011;2586;48.710;9.202;2022-11-04T00:54:10;7.50;;;1.13;;
5135;SDS011;2586;48.710;9.202;2022-11-04T00:56:36;1.33;;;0.83;;
5135;SDS011;2586;48.710;9.202;2022-11-04T00:59:02;2.00;;;1.10;;
5135;SDS011;2586;48.710;9.202;2022-11-04T01:01:28;1.10;;;0.77;;
5135;SDS011;2586;48.710;9.202;2022-11-04T01:03:54;1.63;;;0.83;;
5135;SDS011;2586;48.710;9.202;2022-11-04T01:06:21;1.07;;;0.83;;
5135;SDS011;2586;48.710;9.202;2022-11-04T01:08:48;1.53;;;0.90;;
5135;SDS011;2586;48.710;9.202;2022-11-04T01:11:24;1.53;;;0.90;;
5135;SDS011;2586;48.710;9.202;2022-11-04T01:13:52;2.97;;;1.07;;
5135;SDS011;2586;48.710;9.202;2022-11-04T01:16:18;0.60;;;0.50;;
5135;SDS011;2586;48.710;9.202;2022-11-04T01:18:44;0.83;;;0.83;;
5135;SDS011;2586;48.710;9.202;2022-11-04T01:21:11;1.10;;;1.00;;
5135;SDS011;2586;48.710;9.202;2022-11-04T01:23:37;0.90;;;0.90;;
5135;SDS011;2586;48.710;9.202;2022-11-04T01:26:05;0.90;;;0.90;;
5135;SDS011;2586;48.710;9.202;2022-11-04T01:28:34;0.90;;;0.70;;
5135;SDS011;2586;48.710;9.202;2022-11-04T01:31:08;1.17;;;1.00;;
5135;SDS011;2586;48.710;9.202;2022-11-04T01:33:35;2.40;;;1.13;;
5135;SDS011;2586;48.710;9.202;2022-11-04T01:36:02;1.90;;;0.80;;
5135;SDS011;2586;48.710;9.202;2022-11-04T01:38:29;1.20;;;1.20;;
5135;SDS011;2586;48.710;9.202;2022-11-04T01:40:54;3.47;;;0.87;;
5135;SDS011;2586;48.710;9.202;2022-11-04T01:43:20;1.80;;;0.90;;
5135;SDS011;2586;48.710;9.202;2022-11-04T01:45:48;1.47;;;1.00;;
5135;SDS011;2586;48.710;9.202;2022-11-04T01:48:23;0.77;;;0.77;;
5135;SDS011;2586;48.710;9.202;2022-11-04T01:50:53;1.43;;;0.67;;
5135;SDS011;2586;48.710;9.202;2022-11-04T01:53:29;2.47;;;0.80;;
5135;SDS011;2586;48.710;9.202;2022-11-04T01:56:02;2.10;;;0.90;;
5135;SDS011;2586;48.710;9.202;2022-11-04T01:58:36;6.93;;;0.80;;
5135;SDS011;2586;48.710;9.202;2022-11-04T02:01:04;1.10;;;1.00;;
5135;SDS011;2586;48.710;9.202;2022-11-04T02:03:37;1.10;;;0.90;;
5135;SDS011;2586;48.710;9.202;2022-11-04T02:06:20;1.20;;;0.53;;
5135;SDS011;2586;48.710;9.202;2022-11-04T02:08:47;0.70;;;0.70;;
5135;SDS011;2586;48.710;9.202;2022-11-04T02:11:13;1.33;;;0.60;;
5135;SDS011;2586;48.710;9.202;2022-11-04T02:13:59;0.77;;;0.70;;
5135;SDS011;2586;48.710;9.202;2022-11-04T02:30:07;0.87;;;0.87;;
5135;SDS011;2586;48.710;9.202;2022-11-04T02:33:09;2.00;;;0.70;;
5135;SDS011;2586;48.710;9.202;2022-11-04T02:43:53;1.00;;;0.50;;
5135;SDS011;2586;48.710;9.202;2022-11-04T02:46:37;2.60;;;0.43;;
5135;SDS011;2586;48.710;9.202;2022-11-04T02:49:12;1.93;;;0.60;;
5135;SDS011;2586;48.710;9.202;2022-11-04T02:54:27;0.70;;;0.50;;
5135;SDS011;2586;48.710;9.202;2022-11-04T02:57:00;2.20;;;0.70;;
5135;SDS011;2586;48.710;9.202;2022-11-04T02:59:38;0.70;;;0.70;;
5135;SDS011;2586;48.710;9.202;2022-11-04T03:02:10;0.80;;;0.80;;
5135;SDS011;2586;48.710;9.202;2022-11-04T03:04:40;1.10;;;0.60;;
5135;SDS011;2586;48.710;9.202;2022-11-04T03:07:10;0.90;;;0.60;;
5135;SDS011;2586;48.710;9.202;2022-11-04T03:09:39;0.60;;;0.50;;
5135;SDS011;2586;48.710;9.202;2022-11-04T03:12:12;1.27;;;0.70;;
5135;SDS011;2586;48.710;9.202;2022-11-04T03:14:42;2.40;;;0.63;;
5135;SDS011;2586;48.710;9.202;2022-11-04T03:17:20;0.70;;;0.43;;
5135;SDS011;2586;48.710;9.202;2022-11-04T03:20:00;1.00;;;0.53;;
5135;SDS011;2586;48.710;9.202;2022-11-04T03:22:33;0.63;;;0.57;;
5135;SDS011;2586;48.710;9.202;2022-11-04T03:25:01;3.40;;;0.53;;
5135;SDS011;2586;48.710;9.202;2022-11-04T03:35:02;0.83;;;0.70;;
5135;SDS011;2586;48.710;9.202;2022-11-04T03:37:28;1.57;;;0.47;;
5135;SDS011;2586;48.710;9.202;2022-11-04T03:39:56;0.80;;;0.50;;
5135;SDS011;2586;48.710;9.202;2022-11-04T03:42:22;1.00;;;0.60;;
5135;SDS011;2586;48.710;9.202;2022-11-04T03:44:48;1.33;;;0.80;;
5135;SDS011;2586;48.710;9.202;2022-11-04T03:47:16;0.47;;;0.47;;
5135;SDS011;2586;48.710;9.202;2022-11-04T03:49:43;1.20;;;0.50;;
5135;SDS011;2586;48.710;9.202;2022-11-04T03:52:11;3.83;;;0.90;;
5135;SDS011;2586;48.710;9.202;2022-11-04T03:54:37;0.60;;;0.50;;
5135;SDS011;2586;48.710;9.202;2022-11-04T03:57:18;2.40;;;0.80;;
5135;SDS011;2586;48.710;9.202;2022-11-04T04:00:16;0.90;;;0.67;;
5135;SDS011;2586;48.710;9.202;2022-11-04T04:05:53;0.80;;;0.77;;
5135;SDS011;2586;48.710;9.202;2022-11-04T04:11:16;4.20;;;0.57;;
5135;SDS011;2586;48.710;9.202;2022-11-04T04:19:06;1.23;;;0.67;;
5135;SDS011;2586;48.710;9.202;2022-11-04T04:21:45;0.73;;;0.60;;
5135;SDS011;2586;48.710;9.202;2022-11-04T04:24:17;0.93;;;0.73;;
5135;SDS011;2586;48.710;9.202;2022-11-04T04:27:03;4.60;;;0.90;;
5135;SDS011;2586;48.710;9.202;2022-11-04T04:29:48;2.87;;;0.40;;
5135;SDS011;2586;48.710;9.202;2022-11-04T04:32:16;1.13;;;0.50;;
5135;SDS011;2586;48.710;9.202;2022-11-04T04:34:42;2.27;;;0.70;;
5135;SDS011;2586;48.710;9.202;2022-11-04T04:37:19;0.90;;;0.60;;
5135;SDS011;2586;48.710;9.202;2022-11-04T04:39:48;1.07;;;0.80;;
5135;SDS011;2586;48.710;9.202;2022-11-04T04:42:35;1.27;;;0.60;;
5135;SDS011;2586;48.710;9.202;2022-11-04T04:45:25;2.10;;;0.70;;
5135;SDS011;2586;48.710;9.202;2022-11-04T04:47:52;1.53;;;0.60;;
5135;SDS011;2586;48.710;9.202;2022-11-04T04:50:18;0.70;;;0.60;;
5135;SDS011;2586;48.710;9.202;2022-11-04T04:52:47;1.90;;;0.90;;
5135;SDS011;2586;48.710;9.202;2022-11-04T04:55:14;4.83;;;0.90;;
5135;SDS011;2586;48.710;9.202;2022-11-04T04:57:41;0.90;;;0.53;;
5135;SDS011;2586;48.710;9.202;2022-11-04T05:00:07;1.60;;;0.80;;
5135;SDS011;2586;48.710;9.202;2022-11-04T05:02:35;5.90;;;0.70;;
5135;SDS011;2586;48.710;9.202;2022-11-04T05:05:01;0.70;;;0.57;;
5135;SDS011;2586;48.710;9.202;2022-11-04T05:07:27;1.30;;;0.70;;
5135;SDS011;2586;48.710;9.202;2022-11-04T05:09:52;2.40;;;0.60;;
5135;SDS011;2586;48.710;9.202;2022-11-04T05:12:18;0.80;;;0.80;;
5135;SDS011;2586;48.710;9.202;2022-11-04T05:14:43;2.13;;;0.57;;
5135;SDS011;2586;48.710;9.202;2022-11-04T05:17:09;2.20;;;0.73;;
5135;SDS011;2586;48.710;9.202;2022-11-04T05:19:35;0.93;;;0.73;;
5135;SDS011;2586;48.710;9.202;2022-11-04T05:22:00;3.40;;;1.10;;
5135;SDS011;2586;48.710;9.202;2022-11-04T05:24:26;1.90;;;1.30;;
5135;SDS011;2586;48.710;9.202;2022-11-04T05:26:52;1.37;;;1.17;;
5135;SDS011;2586;48.710;9.202;2022-11-04T05:29:17;0.93;;;0.67;;
5135;SDS011;2586;48.710;9.202;2022-11-04T05:31:43;3.70;;;1.00;;
5135;SDS011;2586;48.710;9.202;2022-11-04T05:34:09;2.80;;;1.00;;
5135;SDS011;2586;48.710;9.202;2022-11-04T05:36:35;1.33;;;0.73;;
5135;SDS011;2586;48.710;9.202;2022-11-04T05:39:26;2.20;;;0.80;;
5135;SDS011;2586;48.710;9.202;2022-11-04T05:41:51;0.77;;;0.60;;
5135;SDS011;2586;48.710;9.202;2022-11-04T05:44:17;1.27;;;0.90;;
5135;SDS011;2586;48.710;9.202;2022-11-04T05:46:43;10.80;;;1.13;;
5135;SDS011;2586;48.710;9.202;2022-11-04T05:49:08;1.20;;;1.03;;
5135;SDS011;2586;48.710;9.202;2022-11-04T05:51:34;3.90;;;1.00;;
5135;SDS011;2586;48.710;9.202;2022-11-04T05:53:59;10.73;;;1.23;;
5135;SDS011;2586;48.710;9.202;2022-11-04T05:56:25;4.10;;;1.47;;
5135;SDS011;2586;48.710;9.202;2022-11-04T05:58:51;1.33;;;0.80;;
5135;SDS011;2586;48.710;9.202;2022-11-04T06:01:24;0.60;;;0.60;;
5135;SDS011;2586;48.710;9.202;2022-11-04T06:03:52;1.80;;;0.70;;
5135;SDS011;2586;48.710;9.202;2022-11-04T06:06:18;1.43;;;0.90;;
5135;SDS011;2586;48.710;9.202;2022-11-04T06:08:45;2.50;;;0.93;;
5135;SDS011;2586;48.710;9.202;2022-11-04T06:11:11;3.83;;;0.80;;
5135;SDS011;2586;48.710;9.202;2022-11-04T06:13:37;1.90;;;0.87;;
5135;SDS011;2586;48.710;9.202;2022-11-04T06:16:02;1.63;;;0.90;;
5135;SDS011;2586;48.710;9.202;2022-11-04T06:18:28;1.83;;;0.90;;
5135;SDS011;2586;48.710;9.202;2022-11-04T06:23:53;5.43;;;1.37;;
5135;SDS011;2586;48.710;9.202;2022-11-04T06:26:23;5.03;;;1.10;;
5135;SDS011;2586;48.710;9.202;2022-11-04T06:28:50;3.77;;;1.33;;
5135;SDS011;2586;48.710;9.202;2022-11-04T06:31:16;4.33;;;1.57;;
5135;SDS011;2586;48.710;9.202;2022-11-04T06:33:42;4.30;;;1.07;;
5135;SDS011;2586;48.710;9.202;2022-11-04T06:36:09;10.93;;;1.13;;
5135;SDS011;2586;48.710;9.202;2022-11-04T06:38:36;1.50;;;1.00;;
5135;SDS011;2586;48.710;9.202;2022-11-04T06:41:03;2.60;;;0.97;;
5135;SDS011;2586;48.710;9.202;2022-11-04T06:43:59;2.80;;;1.00;;
5135;SDS011;2586;48.710;9.202;2022-11-04T06:46:53;3.80;;;1.03;;
5135;SDS011;2586;48.710;9.202;2022-11-04T07:29:56;1.17;;;1.17;;
5135;SDS011;2586;48.710;9.202;2022-11-04T07:32:21;3.10;;;2.50;;
5135;SDS011;2586;48.710;9.202;2022-11-04T07:34:47;5.07;;;2.20;;
5135;SDS011;2586;48.710;9.202;2022-11-04T07:37:13;5.73;;;1.73;;
5135;SDS011;2586;48.710;9.202;2022-11-04T07:39:38;6.33;;;1.23;;
5135;SDS011;2586;48.710;9.202;2022-11-04T07:42:05;8.10;;;2.20;;
5135;SDS011;2586;48.710;9.202;2022-11-04T07:44:32;3.33;;;1.27;;
5135;SDS011;2586;48.710;9.202;2022-11-04T07:46:57;3.00;;;1.60;;
5135;SDS011;2586;48.710;9.202;2022-11-04T07:49:23;4.67;;;1.00;;
5135;SDS011;2586;48.710;9.202;2022-11-04T07:51:49;2.20;;;0.90;;
5135;SDS011;2586;48.710;9.202;2022-11-04T07:54:15;3.97;;;1.20;;
5135;SDS011;2586;48.710;9.202;2022-11-04T07:56:41;5.40;;;1.23;;
5135;SDS011;2586;48.710;9.202;2022-11-04T07:59:06;8.30;;;1.20;;
5135;SDS011;2586;48.710;9.202;2022-11-04T08:01:32;7.30;;;2.07;;
5135;SDS011;2586;48.710;9.202;2022-11-04T08:03:58;2.10;;;1.30;;
5135;SDS011;2586;48.710;9.202;2022-11-04T08:06:24;2.47;;;0.97;;
5135;SDS011;2586;48.710;9.202;2022-11-04T08:08:49;7.90;;;1.03;;
5135;SDS011;2586;48.710;9.202;2022-11-04T08:11:18;10.13;;;1.00;;
5135;SDS011;2586;48.710;9.202;2022-11-04T08:13:47;3.80;;;1.00;;
5135;SDS011;2586;48.710;9.202;2022-11-04T08:16:14;2.30;;;0.97;;
5135;SDS011;2586;48.710;9.202;2022-11-04T08:18:42;5.77;;;0.90;;
5135;SDS011;2586;48.710;9.202;2022-11-04T08:21:08;3.40;;;1.00;;
5135;SDS011;2586;48.710;9.202;2022-11-04T08:23:34;1.47;;;1.00;;
5135;SDS011;2586;48.710;9.202;2022-11-04T08:26:00;10.93;;;1.30;;
5135;SDS011;2586;48.710;9.202;2022-11-04T08:28:26;1.47;;;1.37;;
5135;SDS011;2586;48.710;9.202;2022-11-04T08:33:27;2.13;;;1.77;;
5135;SDS011;2586;48.710;9.202;2022-11-04T08:35:53;3.10;;;1.47;;
5135;SDS011;2586;48.710;9.202;2022-11-04T08:38:22;2.83;;;1.60;;
5135;SDS011;2586;48.710;9.202;2022-11-04T08:40:48;4.27;;;1.97;;
5135;SDS011;2586;48.710;9.202;2022-11-04T08:43:13;2.90;;;1.70;;
5135;SDS011;2586;48.710;9.202;2022-11-04T08:45:43;100.70;;;6.47;;
5135;SDS011;2586;48.710;9.202;2022-11-04T08:48:10;27.23;;;5.23;;
5135;SDS011;2586;48.710;9.202;2022-11-04T08:50:37;9.80;;;4.23;;
5135;SDS011;2586;48.710;9.202;2022-11-04T08:53:03;12.50;;;4.33;;
5135;SDS011;2586;48.710;9.202;2022-11-04T08:55:29;10.43;;;3.40;;
5135;SDS011;2586;48.710;9.202;2022-11-04T08:57:55;4.77;;;1.47;;
5135;SDS011;2586;48.710;9.202;2022-11-04T09:00:21;2.10;;;1.50;;
5135;SDS011;2586;48.710;9.202;2022-11-04T09:02:46;2.50;;;1.40;;
5135;SDS011;2586;48.710;9.202;2022-11-04T09:05:12;3.43;;;1.83;;
5135;SDS011;2586;48.710;9.202;2022-11-04T09:07:39;2.27;;;1.37;;
5135;SDS011;2586;48.710;9.202;2022-11-04T09:10:05;5.27;;;2.20;;
5135;SDS011;2586;48.710;9.202;2022-11-04T09:12:31;7.90;;;1.17;;
5135;SDS011;2586;48.710;9.202;2022-11-04T09:14:57;1.57;;;1.20;;
5135;SDS011;2586;48.710;9.202;2022-11-04T09:17:22;7.03;;;0.80;;
5135;SDS011;2586;48.710;9.202;2022-11-04T09:19:48;3.93;;;1.00;;
5135;SDS011;2586;48.710;9.202;2022-11-04T09:22:14;1.53;;;1.30;;
5135;SDS011;2586;48.710;9.202;2022-11-04T09:24:39;18.73;;;1.13;;
5135;SDS011;2586;48.710;9.202;2022-11-04T09:27:05;1.97;;;1.10;;
5135;SDS011;2586;48.710;9.202;2022-11-04T09:29:30;9.60;;;1.27;;
5135;SDS011;2586;48.710;9.202;2022-11-04T09:31:58;3.63;;;1.53;;
5135;SDS011;2586;48.710;9.202;2022-11-04T09:34:24;5.73;;;0.90;;
5135;SDS011;2586;48.710;9.202;2022-11-04T09:36:49;6.53;;;1.30;;
5135;SDS011;2586;48.710;9.202;2022-11-04T09:39:18;3.50;;;1.20;;
5135;SDS011;2586;48.710;9.202;2022-11-04T09:44:39;6.63;;;1.10;;
5135;SDS011;2586;48.710;9.202;2022-11-04T09:47:20;1.17;;;0.83;;
5135;SDS011;2586;48.710;9.202;2022-11-04T09:49:49;3.70;;;1.10;;
5135;SDS011;2586;48.710;9.202;2022-11-04T09:52:20;3.27;;;1.03;;
5135;SDS011;2586;48.710;9.202;2022-11-04T09:54:58;1.13;;;1.03;;
5135;SDS011;2586;48.710;9.202;2022-11-04T09:57:30;5.87;;;1.23;;
5135;SDS011;2586;48.710;9.202;2022-11-04T09:59:57;10.10;;;1.20;;
5135;SDS011;2586;48.710;9.202;2022-11-04T10:05:31;1.00;;;0.77;;
5135;SDS011;2586;48.710;9.202;2022-11-04T10:08:23;1.27;;;0.70;;
5135;SDS011;2586;48.710;9.202;2022-11-04T10:11:22;3.07;;;1.13;;
5135;SDS011;2586;48.710;9.202;2022-11-04T10:17:11;8.30;;;1.20;;
5135;SDS011;2586;48.710;9.202;2022-11-04T10:25:49;2.57;;;1.20;;
5135;SDS011;2586;48.710;9.202;2022-11-04T10:28:30;5.10;;;1.17;;
5135;SDS011;2586;48.710;9.202;2022-11-04T10:31:00;9.83;;;1.10;;
5135;SDS011;2586;48.710;9.202;2022-11-04T10:33:34;5.33;;;1.43;;
5135;SDS011;2586;48.710;9.202;2022-11-04T10:36:05;3.13;;;1.33;;
5135;SDS011;2586;48.710;9.202;2022-11-04T10:38:35;2.80;;;0.87;;
5135;SDS011;2586;48.710;9.202;2022-11-04T10:41:15;1.97;;;1.37;;
5135;SDS011;2586;48.710;9.202;2022-11-04T10:43:45;2.70;;;1.10;;
5135;SDS011;2586;48.710;9.202;2022-11-04T10:49:04;6.33;;;1.30;;
5135;SDS011;2586;48.710;9.202;2022-11-04T10:51:36;2.00;;;0.70;;
5135;SDS011;2586;48.710;9.202;2022-11-04T10:54:04;4.57;;;1.00;;
5135;SDS011;2586;48.710;9.202;2022-11-04T10:59:25;5.20;;;0.80;;
5135;SDS011;2586;48.710;9.202;2022-11-04T11:01:59;5.50;;;1.07;;
5135;SDS011;2586;48.710;9.202;2022-11-04T11:04:30;1.83;;;0.80;;
5135;SDS011;2586;48.710;9.202;2022-11-04T11:07:01;5.20;;;1.27;;
5135;SDS011;2586;48.710;9.202;2022-11-04T11:09:32;2.00;;;0.80;;
5135;SDS011;2586;48.710;9.202;2022-11-04T11:12:01;4.27;;;1.30;;
5135;SDS011;2586;48.710;9.202;2022-11-04T11:14:34;18.50;;;7.70;;
5135;SDS011;2586;48.710;9.202;2022-11-04T11:22:27;4.10;;;2.10;;
5135;SDS011;2586;48.710;9.202;2022-11-04T11:25:34;4.70;;;1.73;;
5135;SDS011;2586;48.710;9.202;2022-11-04T11:27:59;6.67;;;3.57;;
5135;SDS011;2586;48.710;9.202;2022-11-04T11:33:07;10.80;;;2.60;;
5135;SDS011;2586;48.710;9.202;2022-11-04T11:35:49;6.27;;;2.10;;
5135;SDS011;2586;48.710;9.202;2022-11-04T11:38:21;3.80;;;1.40;;
5135;SDS011;2586;48.710;9.202;2022-11-04T11:40:48;3.17;;;0.97;;
5135;SDS011;2586;48.710;9.202;2022-11-04T11:43:29;5.80;;;1.57;;
5135;SDS011;2586;48.710;9.202;2022-11-04T11:45:57;9.77;;;1.40;;
5135;SDS011;2586;48.710;9.202;2022-11-04T11:48:32;7.30;;;1.70;;
5135;SDS011;2586;48.710;9.202;2022-11-04T11:51:05;10.13;;;1.63;;
5135;SDS011;2586;48.710;9.202;2022-11-04T11:53:31;1.63;;;1.00;;
5135;SDS011;2586;48.710;9.202;2022-11-04T11:56:22;6.87;;;1.40;;
5135;SDS011;2586;48.710;9.202;2022-11-04T11:59:00;3.67;;;1.13;;
5135;SDS011;2586;48.710;9.202;2022-11-04T12:01:34;4.43;;;1.10;;
5135;SDS011;2586;48.710;9.202;2022-11-04T12:04:06;2.83;;;0.80;;
5135;SDS011;2586;48.710;9.202;2022-11-04T12:09:07;8.07;;;1.10;;
5135;SDS011;2586;48.710;9.202;2022-11-04T12:12:28;12.50;;;1.50;;
5135;SDS011;2586;48.710;9.202;2022-11-04T12:17:38;1.90;;;0.77;;
5135;SDS011;2586;48.710;9.202;2022-11-04T12:20:20;8.07;;;1.30;;
5135;SDS011;2586;48.710;9.202;2022-11-04T12:25:46;2.73;;;0.97;;
5135;SDS011;2586;48.710;9.202;2022-11-04T12:28:39;3.87;;;0.70;;
5135;SDS011;2586;48.710;9.202;2022-11-04T12:31:28;6.60;;;1.20;;
5135;SDS011;2586;48.710;9.202;2022-11-04T12:36:45;5.83;;;0.83;;
5135;SDS011;2586;48.710;9.202;2022-11-04T12:39:43;2.13;;;0.80;;
5135;SDS011;2586;48.710;9.202;2022-11-04T12:43:01;5.70;;;2.03;;
5135;SDS011;2586;48.710;9.202;2022-11-04T12:45:46;9.63;;;3.20;;
5135;SDS011;2586;48.710;9.202;2022-11-04T12:48:26;4.37;;;1.40;;
5135;SDS011;2586;48.710;9.202;2022-11-04T12:51:36;7.50;;;1.90;;
5135;SDS011;2586;48.710;9.202;2022-11-04T12:54:10;4.80;;;1.40;;
5135;SDS011;2586;48.710;9.202;2022-11-04T12:56:46;1.03;;;0.87;;
5135;SDS011;2586;48.710;9.202;2022-11-04T13:02:21;10.20;;;1.37;;
5135;SDS011;2586;48.710;9.202;2022-11-04T13:04:55;6.67;;;1.93;;
5135;SDS011;2586;48.710;9.202;2022-11-04T13:07:45;6.47;;;1.80;;
5135;SDS011;2586;48.710;9.202;2022-11-04T13:11:11;8.23;;;1.30;;
5135;SDS011;2586;48.710;9.202;2022-11-04T13:13:20;2.40;;;0.90;;
5135;SDS011;2586;48.710;9.202;2022-11-04T13:15:53;3.20;;;1.10;;
5135;SDS011;2586;48.710;9.202;2022-11-04T13:18:22;5.73;;;1.20;;
5135;SDS011;2586;48.710;9.202;2022-11-04T13:23:27;2.73;;;0.90;;
5135;SDS011;2586;48.710;9.202;2022-11-04T13:26:10;8.63;;;1.17;;
5135;SDS011;2586;48.710;9.202;2022-11-04T13:28:39;5.70;;;1.57;;
5135;SDS011;2586;48.710;9.202;2022-11-04T13:34:23;5.03;;;1.70;;
5135;SDS011;2586;48.710;9.202;2022-11-04T13:39:59;4.50;;;0.93;;
5135;SDS011;2586;48.710;9.202;2022-11-04T13:45:02;5.13;;;1.13;;
5135;SDS011;2586;48.710;9.202;2022-11-04T13:47:35;5.67;;;1.00;;
5135;SDS011;2586;48.710;9.202;2022-11-04T13:50:12;6.20;;;1.23;;
5135;SDS011;2586;48.710;9.202;2022-11-04T13:52:52;5.97;;;1.00;;
5135;SDS011;2586;48.710;9.202;2022-11-04T13:55:18;3.43;;;1.00;;
5135;SDS011;2586;48.710;9.202;2022-11-04T13:57:51;4.97;;;1.10;;
5135;SDS011;2586;48.710;9.202;2022-11-04T14:02:55;5.43;;;1.00;;
5135;SDS011;2586;48.710;9.202;2022-11-04T14:18:31;9.20;;;1.60;;
5135;SDS011;2586;48.710;9.202;2022-11-04T14:23:58;4.53;;;1.27;;
5135;SDS011;2586;48.710;9.202;2022-11-04T14:26:42;3.83;;;0.87;;
5135;SDS011;2586;48.710;9.202;2022-11-04T14:29:20;2.77;;;1.20;;
5135;SDS011;2586;48.710;9.202;2022-11-04T14:31:49;8.63;;;1.20;;
5135;SDS011;2586;48.710;9.202;2022-11-04T14:34:30;2.07;;;1.00;;
5135;SDS011;2586;48.710;9.202;2022-11-04T14:36:58;6.80;;;1.00;;
5135;SDS011;2586;48.710;9.202;2022-11-04T14:39:26;5.70;;;1.40;;
5135;SDS011;2586;48.710;9.202;2022-11-04T14:42:03;7.80;;;1.93;;
5135;SDS011;2586;48.710;9.202;2022-11-04T14:44:35;6.53;;;1.50;;
5135;SDS011;2586;48.710;9.202;2022-11-04T14:47:12;3.10;;;0.80;;
5135;SDS011;2586;48.710;9.202;2022-11-04T14:49:50;2.10;;;0.50;;
5135;SDS011;2586;48.710;9.202;2022-11-04T14:52:19;2.67;;;0.80;;
5135;SDS011;2586;48.710;9.202;2022-11-04T14:55:06;4.03;;;0.60;;
5135;SDS011;2586;48.710;9.202;2022-11-04T14:57:39;2.57;;;0.80;;
5135;SDS011;2586;48.710;9.202;2022-11-04T15:03:14;3.23;;;1.50;;
5135;SDS011;2586;48.710;9.202;2022-11-04T15:05:55;5.43;;;1.20;;
5135;SDS011;2586;48.710;9.202;2022-11-04T15:13:48;2.80;;;0.60;;
5135;SDS011;2586;48.710;9.202;2022-11-04T15:16:19;0.70;;;0.67;;
5135;SDS011;2586;48.710;9.202;2022-11-04T15:18:48;1.00;;;1.00;;
5135;SDS011;2586;48.710;9.202;2022-11-04T15:21:15;5.77;;;0.70;;
5135;SDS011;2586;48.710;9.202;2022-11-04T15:26:21;5.17;;;1.30;;
5135;SDS011;2586;48.710;9.202;2022-11-04T15:28:50;1.97;;;1.00;;
5135;SDS011;2586;48.710;9.202;2022-11-04T15:31:18;3.07;;;0.97;;
5135;SDS011;2586;48.710;9.202;2022-11-04T15:33:47;1.60;;;0.80;;
5135;SDS011;2586;48.710;9.202;2022-11-04T15:36:37;5.23;;;1.00;;
5135;SDS011;2586;48.710;9.202;2022-11-04T15:39:07;4.33;;;0.80;;
5135;SDS011;2586;48.710;9.202;2022-11-04T15:41:41;4.70;;;0.77;;
5135;SDS011;2586;48.710;9.202;2022-11-04T15:44:27;5.73;;;1.30;;
5135;SDS011;2586;48.710;9.202;2022-11-04T15:46:59;2.87;;;1.37;;
5135;SDS011;2586;48.710;9.202;2022-11-04T15:49:30;2.00;;;1.37;;
5135;SDS011;2586;48.710;9.202;2022-11-04T15:52:03;3.53;;;1.40;;
5135;SDS011;2586;48.710;9.202;2022-11-04T15:54:32;5.27;;;1.00;;
5135;SDS011;2586;48.710;9.202;2022-11-04T15:57:02;0.93;;;0.77;;
5135;SDS011;2586;48.710;9.202;2022-11-04T15:59:36;3.23;;;1.10;;
5135;SDS011;2586;48.710;9.202;2022-11-04T16:02:03;4.10;;;1.10;;
5135;SDS011;2586;48.710;9.202;2022-11-04T16:04:39;3.20;;;0.90;;
5135;SDS011;2586;48.710;9.202;2022-11-04T16:07:18;4.90;;;0.67;;
5135;SDS011;2586;48.710;9.202;2022-11-04T16:09:50;1.50;;;1.10;;
5135;SDS011;2586;48.710;9.202;2022-11-04T16:14:55;4.33;;;0.70;;
5135;SDS011;2586;48.710;9.202;2022-11-04T16:17:22;2.10;;;0.70;;
5135;SDS011;2586;48.710;9.202;2022-11-04T16:19:51;5.10;;;1.50;;
5135;SDS011;2586;48.710;9.202;2022-11-04T16:22:20;3.60;;;1.50;;
5135;SDS011;2586;48.710;9.202;2022-11-04T16:24:56;1.33;;;1.10;;
5135;SDS011;2586;48.710;9.202;2022-11-04T16:27:23;2.50;;;1.53;;
5135;SDS011;2586;48.710;9.202;2022-11-04T16:29:51;1.80;;;1.00;;
5135;SDS011;2586;48.710;9.202;2022-11-04T16:34:55;2.20;;;1.23;;
5135;SDS011;2586;48.710;9.202;2022-11-04T16:37:26;29.73;;;2.10;;
5135;SDS011;2586;48.710;9.202;2022-11-04T16:39:52;2.10;;;1.57;;
5135;SDS011;2586;48.710;9.202;2022-11-04T16:42:18;4.13;;;0.97;;
5135;SDS011;2586;48.710;9.202;2022-11-04T16:44:49;5.80;;;1.17;;
5135;SDS011;2586;48.710;9.202;2022-11-04T16:47:17;1.63;;;1.53;;
5135;SDS011;2586;48.710;9.202;2022-11-04T16:49:43;1.30;;;0.93;;
5135;SDS011;2586;48.710;9.202;2022-11-04T16:52:14;4.10;;;1.47;;
5135;SDS011;2586;48.710;9.202;2022-11-04T16:54:46;11.07;;;1.87;;
5135;SDS011;2586;48.710;9.202;2022-11-04T16:57:12;5.90;;;4.23;;
5135;SDS011;2586;48.710;9.202;2022-11-04T16:59:39;4.50;;;3.87;;
5135;SDS011;2586;48.710;9.202;2022-11-04T17:02:18;6.67;;;3.10;;
5135;SDS011;2586;48.710;9.202;2022-11-04T17:05:01;4.73;;;2.33;;
5135;SDS011;2586;48.710;9.202;2022-11-04T17:07:30;4.47;;;2.17;;
5135;SDS011;2586;48.710;9.202;2022-11-04T17:09:56;6.10;;;2.37;;
5135;SDS011;2586;48.710;9.202;2022-11-04T17:12:21;6.63;;;2.17;;
5135;SDS011;2586;48.710;9.202;2022-11-04T17:14:47;2.37;;;1.73;;
5135;SDS011;2586;48.710;9.202;2022-11-04T17:17:12;6.20;;;2.40;;
5135;SDS011;2586;48.710;9.202;2022-11-04T17:19:38;3.40;;;2.27;;
5135;SDS011;2586;48.710;9.202;2022-11-04T17:22:04;3.67;;;2.27;;
5135;SDS011;2586;48.710;9.202;2022-11-04T17:24:31;3.50;;;2.57;;
5135;SDS011;2586;48.710;9.202;2022-11-04T17:26:57;6.63;;;2.83;;
5135;SDS011;2586;48.710;9.202;2022-11-04T17:29:23;5.23;;;2.80;;
5135;SDS011;2586;48.710;9.202;2022-11-04T17:31:48;4.97;;;2.33;;
5135;SDS011;2586;48.710;9.202;2022-11-04T17:34:16;11.07;;;3.13;;
5135;SDS011;2586;48.710;9.202;2022-11-04T17:36:42;13.53;;;2.70;;
5135;SDS011;2586;48.710;9.202;2022-11-04T17:39:07;3.87;;;2.53;;
5135;SDS011;2586;48.710;9.202;2022-11-04T17:41:33;3.50;;;2.80;;
5135;SDS011;2586;48.710;9.202;2022-11-04T17:44:17;4.87;;;3.13;;
5135;SDS011;2586;48.710;9.202;2022-11-04T17:46:43;3.97;;;2.97;;
5135;SDS011;2586;48.710;9.202;2022-11-04T17:49:12;6.47;;;4.50;;
5135;SDS011;2586;48.710;9.202;2022-11-04T17:51:41;12.23;;;7.07;;
5135;SDS011;2586;48.710;9.202;2022-11-04T17:54:09;10.10;;;5.47;;
5135;SDS011;2586;48.710;9.202;2022-11-04T17:56:36;10.37;;;5.83;;
5135;SDS011;2586;48.710;9.202;2022-11-04T17:59:02;6.20;;;5.07;;
5135;SDS011;2586;48.710;9.202;2022-11-04T18:01:28;6.33;;;4.40;;
5135;SDS011;2586;48.710;9.202;2022-11-04T18:03:55;5.97;;;3.73;;
5135;SDS011;2586;48.710;9.202;2022-11-04T18:06:22;4.90;;;4.27;;
5135;SDS011;2586;48.710;9.202;2022-11-04T18:08:50;12.23;;;3.17;;
5135;SDS011;2586;48.710;9.202;2022-11-04T18:11:20;4.87;;;2.57;;
5135;SDS011;2586;48.710;9.202;2022-11-04T18:14:05;8.10;;;3.37;;
5135;SDS011;2586;48.710;9.202;2022-11-04T18:16:31;5.90;;;2.37;;
5135;SDS011;2586;48.710;9.202;2022-11-04T18:18:57;4.10;;;2.33;;
5135;SDS011;2586;48.710;9.202;2022-11-04T18:21:23;3.30;;;2.47;;
5135;SDS011;2586;48.710;9.202;2022-11-04T18:23:49;3.90;;;3.10;;
5135;SDS011;2586;48.710;9.202;2022-11-04T18:26:15;7.13;;;3.27;;
5135;SDS011;2586;48.710;9.202;2022-11-04T18:28:41;6.33;;;2.37;;
5135;SDS011;2586;48.710;9.202;2022-11-04T18:31:10;3.17;;;2.33;;
5135;SDS011;2586;48.710;9.202;2022-11-04T18:33:39;3.50;;;2.43;;
5135;SDS011;2586;48.710;9.202;2022-11-04T18:36:06;7.20;;;2.40;;
5135;SDS011;2586;48.710;9.202;2022-11-04T18:38:33;3.33;;;2.90;;